Ora Direzione Vento Velocita' Vento Media Vento Raffica Max. Temperatura Wind Chill Pioggia Pressione
02:40:33.00 °(N)3.77 Kts4.07 Kts5.85 Kts9.3 °C13.13 °C0.0 mm1023.9 Hpa
02:20:24.00 °(N)3.51 Kts3.03 Kts4.81 Kts9.3 °C13.1 °C0.0 mm1022.7 Hpa
02:00:08.00 °(N)2.86 Kts2.38 Kts4.42 Kts9.5 °C12.98 °C0.0 mm1021.9 Hpa
01:40:01.00 °(N)1.82 Kts3.03 Kts4.42 Kts9.6 °C12.37 °C0.0 mm1025.2 Hpa
01:19:50.00 °(N)2.86 Kts2.77 Kts4.42 Kts9.6 °C13.14 °C0.0 mm1023.6 Hpa
00:59:35.00 °(N)1.82 Kts2.6 Kts4.42 Kts9.8 °C12.64 °C0.0 mm1024.0 Hpa
00:39:29.00 °(N)1.3 Kts3.07 Kts4.42 Kts9.8 °C12.31 °C0.0 mm1021.6 Hpa
00:20:25.00 °(N)2.86 Kts3.03 Kts4.42 Kts9.8 °C13.44 °C0.0 mm1024.0 Hpa
00:00:18.00 °(N)1.04 Kts2.08 Kts11.7 Kts9.3 °C11.45 °C0.0 mm1021.6 Hpa
23:40:05.00 °(N)1.04 Kts1.34 Kts11.7 Kts9.5 °C11.68 °C0.0 mm1022.8 Hpa
23:20:01.00 °(N)0.0 Kts0.26 Kts11.7 Kts9.6 °C19.08 °C0.0 mm1023.2 Hpa
22:59:53.00 °(N)0.0 Kts0.0 Kts11.7 Kts9.6 °C19.08 °C0.0 mm1021.2 Hpa
22:39:49.00 °(N)0.78 Kts1.38 Kts11.7 Kts10.1 °C12.23 °C0.0 mm1022.4 Hpa
22:19:44.00 °(N)0.91 Kts0.56 Kts11.7 Kts10.3 °C12.51 °C0.0 mm1024.9 Hpa
21:59:34.00 °(N)1.82 Kts2.12 Kts11.7 Kts10.3 °C13.31 °C0.0 mm1022.1 Hpa
21:39:25.00 °(N)0.0 Kts0.82 Kts11.7 Kts10.3 °C19.52 °C0.0 mm1021.6 Hpa
21:20:27.00 °(N)0.0 Kts0.3 Kts11.7 Kts10.3 °C19.52 °C0.0 mm1020.4 Hpa
21:00:18.00 °(N)0.52 Kts0.99 Kts11.7 Kts10.8 °C12.7 °C0.0 mm1020.8 Hpa
20:40:13.00 °(N)1.69 Kts1.47 Kts11.7 Kts11.0 °C14.1 °C0.0 mm1022.5 Hpa
20:20:05.00 °(N)0.39 Kts0.0 Kts11.7 Kts11.5 °C13.34 °C0.0 mm1021.7 Hpa